Seadream 1 — C6PW8 — position and weather

sailwx.info

Track history (hours):
 
Tides and Currents Weather Stations Pressure Air Temp Water Temp Dewpoint Dewpoint Depression Visibility Wind Speed Wind Dir Waves Ship Positions

Seadream 1

Last reported at 2015-Jan-27 22:14 UTC. Time now 2015-Jan-27 23:02 UTC.
Position N 17°59' W 063°02'.

Length 105 m; draft 4.3 m.

Type: Ship. MMSI: 308908000.

Date/timePositionNaut miles runAvg speedWind from/ knotsBaromVisibWave heightAir tempDewpointWater temp
2015-Jan-27 22:14N 17°59' W 063°02'2 0.2
2015-Jan-27 11:27N 18°00' W 063°04'8 8.4
2015-Jan-27 10:27N 18°01' W 063°13'8 8.2
2015-Jan-27 09:31N 18°03' W 063°21'4 3.8
2015-Jan-27 08:33N 18°02' W 063°17'7 7.3
2015-Jan-27 07:33N 18°04' W 063°24'8 7.4
2015-Jan-27 06:33N 18°05' W 063°32'8 8.0
2015-Jan-27 05:33N 18°06' W 063°40'50 7.8
2015-Jan-26 23:06N 18°16' W 064°32'7 8.3
2015-Jan-26 22:18N 18°17' W 064°39'3 0.3
2015-Jan-26 12:32N 18°21' W 064°38'1212.1
2015-Jan-26 11:31N 18°28' W 064°28'28 0.8
2015-Jan-24 23:31N 18°11' W 064°51'25 1.0
2015-Jan-23 22:25N 18°22' W 064°28'4 0.4
2015-Jan-23 11:28N 18°26' W 064°28'1112.1
2015-Jan-23 10:33N 18°21' W 064°38'1 0.1
2015-Jan-22 17:24N 18°20' W 064°38'6 6.5
2015-Jan-22 16:33N 18°23' W 064°43'0 0.0
2015-Jan-22 15:28N 18°23' W 064°43'0 0.0
2015-Jan-22 14:16N 18°23' W 064°43'0 0.1
2015-Jan-22 13:29N 18°23' W 064°43'0 0.3
2015-Jan-22 12:34N 18°23' W 064°43'9 8.9
2015-Jan-22 11:33N 18°23' W 064°33'  
2015-Jan-18 00:06N 18°17' W 064°40'4 8.3
2015-Jan-17 23:33N 18°17' W 064°45'8 7.9
2015-Jan-17 22:33N 18°17' W 064°53'  
Track history (hours):
 
Tides and Currents Weather Stations Pressure Air Temp Water Temp Dewpoint Dewpoint Depression Visibility Wind Speed Wind Dir Waves Ship Positions

Seadream 1

Last reported at 2015-Jan-27 22:14 UTC. Time now 2015-Jan-27 23:02 UTC.
Position N 17°59' W 063°02'.

Length 105 m; draft 4.3 m.

Type: Ship. MMSI: 308908000.

Date/timePositionNaut miles runAvg speedWind from/ knotsBaromVisibWave heightAir tempDewpointWater temp
2015-Jan-27 22:14N 17°59' W 063°02'2 0.2
2015-Jan-27 11:27N 18°00' W 063°04'8 8.4
2015-Jan-27 10:27N 18°01' W 063°13'8 8.2
2015-Jan-27 09:31N 18°03' W 063°21'4 3.8
2015-Jan-27 08:33N 18°02' W 063°17'7 7.3
2015-Jan-27 07:33N 18°04' W 063°24'8 7.4
2015-Jan-27 06:33N 18°05' W 063°32'8 8.0
2015-Jan-27 05:33N 18°06' W 063°40'50 7.8
2015-Jan-26 23:06N 18°16' W 064°32'7 8.3
2015-Jan-26 22:18N 18°17' W 064°39'3 0.3
2015-Jan-26 12:32N 18°21' W 064°38'1212.1
2015-Jan-26 11:31N 18°28' W 064°28'28 0.8
2015-Jan-24 23:31N 18°11' W 064°51'25 1.0
2015-Jan-23 22:25N 18°22' W 064°28'4 0.4
2015-Jan-23 11:28N 18°26' W 064°28'1112.1
2015-Jan-23 10:33N 18°21' W 064°38'1 0.1
2015-Jan-22 17:24N 18°20' W 064°38'6 6.5
2015-Jan-22 16:33N 18°23' W 064°43'0 0.0
2015-Jan-22 15:28N 18°23' W 064°43'0 0.0
2015-Jan-22 14:16N 18°23' W 064°43'0 0.1
2015-Jan-22 13:29N 18°23' W 064°43'0 0.3
2015-Jan-22 12:34N 18°23' W 064°43'9 8.9
2015-Jan-22 11:33N 18°23' W 064°33'  
2015-Jan-18 00:06N 18°17' W 064°40'4 8.3
2015-Jan-17 23:33N 18°17' W 064°45'8 7.9
2015-Jan-17 22:33N 18°17' W 064°53'  

Dump ship's entire track history